Time;durP1;ratioP1;P1;durP2;ratioP2;P2;SDS_P1;SDS_P2;PMS_P1;PMS_P2;Temp;Humidity;BMP_temperature;BMP_pressure;BME280_temperature;BME280_humidity;BME280_pressure;Samples;Min_cycle;Max_cycle;Signal;HPM_P1;HPM_P2
2023/02/13 00:02:07;;;;;;;26.10;15.52;;;-0.70;99.90;;;;;;4989760;28;20030;-74
2023/02/13 00:04:33;;;;;;;41.60;14.93;;;-0.80;99.90;;;;;;4989427;28;20113;-74
2023/02/13 00:06:59;;;;;;;31.02;13.95;;;-0.70;99.90;;;;;;4989413;28;20070;-74
2023/02/13 00:09:25;;;;;;;31.45;14.45;;;;;;;;;;4991527;28;20514;-74
2023/02/13 00:11:51;;;;;;;26.20;12.18;;;-0.50;99.90;;;;;;4993835;28;20383;-74
2023/02/13 00:14:17;;;;;;;30.45;15.13;;;;;;;;;;4993637;28;20030;-74
2023/02/13 00:16:42;;;;;;;26.38;12.80;;;-0.60;98.60;;;;;;4993808;28;20023;-74
2023/02/13 00:19:08;;;;;;;30.63;14.85;;;;;;;;;;4993427;28;20085;-74
2023/02/13 00:21:34;;;;;;;22.23;12.13;;;;;;;;;;4992614;28;20531;-74
2023/02/13 00:24:00;;;;;;;33.03;12.77;;;;;;;;;;5024715;28;20030;-74
2023/02/13 00:26:26;;;;;;;32.72;15.13;;;;;;;;;;4993379;28;20520;-74
2023/02/13 00:28:52;;;;;;;31.70;15.40;;;;;;;;;;4993320;28;20491;-74
2023/02/13 00:31:20;;;;;;;32.92;13.40;;;-0.90;95.80;;;;;;4993619;28;20492;-74
2023/02/13 00:33:46;;;;;;;;;;;-0.80;96.30;;;;;;4994081;28;20030;-73
2023/02/13 00:36:12;;;;;;;26.13;14.25;;;;;;;;;;4993230;28;20016;-74
2023/02/13 00:38:38;;;;;;;40.47;17.63;;;-0.90;99.90;;;;;;4993365;28;20034;-73
2023/02/13 00:41:05;;;;;;;28.13;12.60;;;;;;;;;;4992918;28;20025;-75
2023/02/13 00:43:31;;;;;;;30.85;13.77;;;-0.90;98.80;;;;;;4992928;28;20081;-73
2023/02/13 00:45:57;;;;;;;28.70;12.68;;;;;;;;;;4992783;28;20574;-74
2023/02/13 00:48:24;;;;;;;23.23;12.07;;;-1.00;99.90;;;;;;4993037;28;20399;-74
2023/02/13 00:50:51;;;;;;;36.92;14.13;;;;;;;;;;4992511;28;20084;-74
2023/02/13 00:53:17;;;;;;;26.08;13.95;;;;;;;;;;4993075;28;20030;-74
2023/02/13 00:55:43;;;;;;;32.20;12.80;;;-1.00;95.80;;;;;;4992885;28;20032;-74
2023/02/13 00:58:09;;;;;;;32.03;12.38;;;-1.20;97.70;;;;;;4992364;28;20392;-73
2023/02/13 01:00:36;;;;;;;35.20;14.18;;;-0.80;99.90;;;;;;4992934;28;20038;-74
2023/02/13 01:03:02;;;;;;;29.70;15.73;;;;;;;;;;4992619;28;20037;-73
2023/02/13 01:05:28;;;;;;;44.03;14.05;;;;;;;;;;4992699;28;20046;-74
2023/02/13 01:07:53;;;;;;;31.55;13.73;;;-1.10;97.30;;;;;;4991938;28;20562;-74
2023/02/13 01:10:19;;;;;;;33.45;15.90;;;;;;;;;;4992617;28;20061;-73
2023/02/13 01:12:45;;;;;;;22.33;12.75;;;;;;;;;;4992737;28;20077;-73
2023/02/13 01:15:11;;;;;;;45.42;18.08;;;;;;;;;;4992731;28;20026;-74
2023/02/13 01:17:38;;;;;;;30.58;15.43;;;-1.10;99.90;;;;;;4992254;28;20026;-73
2023/02/13 01:20:06;;;;;;;31.25;13.95;;;-1.10;95.90;;;;;;4991438;28;20545;-73
2023/02/13 01:22:32;;;;;;;27.17;14.57;;;;;;;;;;4991862;28;20050;-74
2023/02/13 01:24:58;;;;;;;17.08;11.98;;;;;;;;;;4992238;28;20038;-74
2023/02/13 01:27:25;;;;;;;28.08;14.02;;;;;;;;;;4992188;28;20403;-73
2023/02/13 01:29:50;;;;;;;43.38;15.93;;;-1.20;99.10;;;;;;4992197;28;20049;-73
2023/02/13 01:32:16;;;;;;;26.27;13.73;;;;;;;;;;4992093;28;20054;-73
2023/02/13 01:34:42;;;;;;;25.42;13.05;;;;;;;;;;4991940;28;20034;-74
2023/02/13 01:37:11;;;;;;;32.17;13.63;;;;;;;;;;4991974;28;20038;-73
2023/02/13 01:39:37;;;;;;;21.65;12.00;;;-1.20;97.10;;;;;;5007034;28;20038;-74
2023/02/13 01:42:03;;;;;;;45.63;16.20;;;-0.70;99.90;;;;;;4991972;28;20480;-73
2023/02/13 01:44:46;;;;;;;30.25;14.43;;;-1.20;95.40;;;;;;4992240;28;20045;-73
2023/02/13 01:47:14;;;;;;;26.48;12.50;;;-1.30;98.20;;;;;;4991849;28;20042;-74
2023/02/13 01:49:43;;;;;;;26.85;13.98;;;-1.30;98.40;;;;;;4991581;28;20041;-74
2023/02/13 01:52:11;;;;;;;23.85;12.43;;;-1.30;97.50;;;;;;4991461;28;20034;-74
2023/02/13 01:54:37;;;;;;;;;;;-1.40;96.50;;;;;;4991726;28;20038;-74
2023/02/13 01:57:16;;;;;;;30.25;12.15;;;-1.40;99.90;;;;;;4991637;28;19974;-74
2023/02/13 01:59:51;;;;;;;30.58;18.33;;;-1.50;96.10;;;;;;4991830;28;20060;-74
2023/02/13 02:02:18;;;;;;;53.13;17.25;;;-1.00;99.90;;;;;;4991725;28;20054;-74
2023/02/13 02:04:47;;;;;;;34.78;15.48;;;-1.30;94.70;;;;;;4991436;28;20034;-74
2023/02/13 02:07:25;;;;;;;29.80;12.75;;;-1.20;94.70;;;;;;4991617;28;20526;-74
2023/02/13 02:09:54;;;;;;;34.38;16.83;;;-1.60;95.10;;;;;;4991753;28;20023;-74
2023/02/13 02:12:39;;;;;;;69.05;25.40;;;-1.40;96.20;;;;;;4991193;28;20030;-74
2023/02/13 02:15:06;;;;;;;62.88;19.42;;;-1.50;95.80;;;;;;4991364;28;20077;-74
2023/02/13 02:17:32;;;;;;;36.10;19.95;;;;;;;;;;4991133;28;20026;-74
2023/02/13 02:20:03;;;;;;;42.90;15.93;;;-1.40;99.90;;;;;;4991407;28;20038;-73
2023/02/13 02:22:44;;;;;;;35.83;16.67;;;-1.50;96.10;;;;;;4990969;28;20066;-74
2023/02/13 02:25:43;;;;;;;30.73;15.80;;;-1.30;95.30;;;;;;4990897;28;20049;-74
2023/02/13 02:28:40;;;;;;;28.85;16.73;;;-1.30;95.20;;;;;;4991016;28;20026;-73
2023/02/13 02:31:27;;;;;;;36.17;18.55;;;-1.10;99.90;;;;;;4990430;28;20073;-74
2023/02/13 02:33:52;;;;;;;27.15;15.55;;;-1.00;99.90;;;;;;4991131;28;20041;-74
2023/02/13 02:36:18;;;;;;;40.78;16.30;;;;;;;;;;4991015;28;20027;-73
2023/02/13 02:39:12;;;;;;;31.30;18.58;;;-1.30;94.20;;;;;;4990991;28;20026;-73
2023/02/13 02:42:02;;;;;;;23.73;12.43;;;-1.30;99.90;;;;;;4991077;28;20036;-73
2023/02/13 02:44:39;;;;;;;27.73;13.95;;;-1.40;99.90;;;;;;4990983;28;20026;-74
2023/02/13 02:50:11;;;;;;;39.40;17.77;;;-1.80;99.90;;;;;;4990897;28;20515;-74
2023/02/13 02:52:55;;;;;;;40.38;17.17;;;-1.90;99.20;;;;;;4990308;28;20061;-73
2023/02/13 02:55:40;;;;;;;41.35;19.25;;;-1.50;98.00;;;;;;4990777;28;20464;-73
2023/02/13 03:06:53;;;;;;;24.90;15.00;;;-1.80;95.80;;;;;;4990424;28;20125;-73
2023/02/13 03:14:57;;;;;;;36.97;14.00;;;-1.70;99.90;;;;;;4990256;28;20518;-73
2023/02/13 03:23:42;;;;;;;28.05;12.60;;;-1.70;95.60;;;;;;4990026;28;20057;-74
2023/02/13 03:26:32;;;;;;;26.25;15.07;;;-1.70;94.90;;;;;;4990154;28;20099;-74
2023/02/13 03:32:23;;;;;;;57.58;19.27;;;-1.70;95.40;;;;;;4989642;28;20037;-74
2023/02/13 03:38:07;;;;;;;40.20;17.40;;;-2.00;96.30;;;;;;4989927;28;20557;-73
2023/02/13 03:41:17;;;;;;;41.33;14.88;;;-2.00;99.90;;;;;;4989961;28;20407;-73
2023/02/13 03:43:28;;;;;;;38.65;15.40;;;-2.00;97.00;;;;;;4988915;28;20030;-73
2023/02/13 03:45:56;;;;;;;33.40;15.85;;;-2.10;96.10;;;;;;4989903;28;20103;-73
2023/02/13 03:51:38;;;;;;;36.60;12.30;;;-2.10;96.20;;;;;;4989427;28;20085;-74
2023/02/13 03:54:12;;;;;;;43.45;17.02;;;-2.00;95.80;;;;;;4989618;28;20509;-74
2023/02/13 03:59:29;;;;;;;;;;;-2.10;96.90;;;;;;4989943;28;20029;-73
2023/02/13 04:02:11;;;;;;;17.10;12.02;;;-2.30;99.90;;;;;;4989725;28;19910;-73
2023/02/13 04:05:05;;;;;;;34.55;14.82;;;-2.20;96.80;;;;;;4989655;28;20126;-74
2023/02/13 04:07:32;;;;;;;20.50;12.95;;;;;;;;;;4989047;28;20057;-74
2023/02/13 04:10:19;;;;;;;19.80;11.65;;;-1.20;96.80;;;;;;4989494;28;20495;-73
2023/02/13 04:13:04;;;;;;;28.42;13.82;;;;;;;;;;4989229;28;20124;-73
2023/02/13 04:15:41;;;;;;;21.67;12.10;;;-2.20;96.10;;;;;;4989397;28;20030;-74
2023/02/13 04:18:26;;;;;;;31.55;14.32;;;-2.40;99.10;;;;;;4989544;28;20030;-74
2023/02/13 04:20:52;;;;;;;28.20;13.07;;;;;;;;;;4989291;28;20538;-74
2023/02/13 04:23:18;;;;;;;34.53;14.70;;;-2.20;96.10;;;;;;4989370;28;20051;-74
2023/02/13 04:25:48;;;;;;;28.15;14.10;;;-2.20;95.30;;;;;;4987680;28;20077;-73
2023/02/13 04:28:14;;;;;;;40.38;14.40;;;;;;;;;;4988848;28;20030;-74
2023/02/13 04:30:40;;;;;;;34.45;11.10;;;-2.30;96.40;;;;;;4989700;28;20027;-74
2023/02/13 04:33:06;;;;;;;36.83;14.30;;;;;;;;;;4987901;28;20022;-74
2023/02/13 04:35:32;;;;;;;31.33;15.07;;;;;;;;;;4989602;28;20046;-73
2023/02/13 04:37:58;;;;;;;32.83;14.68;;;;;;;;;;4989421;28;20526;-73
2023/02/13 04:40:24;;;;;;;32.35;16.25;;;;;;;;;;4989180;28;20034;-74
2023/02/13 04:42:50;;;;;;;32.67;16.90;;;;;;;;;;4989084;28;20027;-73
2023/02/13 04:45:16;;;;;;;40.83;13.75;;;;;;;;;;4988802;28;20042;-74
2023/02/13 04:47:42;;;;;;;33.03;13.77;;;;;;;;;;4989154;28;20030;-73
2023/02/13 04:50:08;;;;;;;21.73;9.23;;;-3.70;94.70;;;;;;4989395;28;20026;-73
2023/02/13 04:52:34;;;;;;;33.03;13.20;;;-2.10;99.30;;;;;;4988909;28;20037;-73
2023/02/13 04:55:00;;;;;;;21.08;12.18;;;;;;;;;;4990159;28;20030;-74
2023/02/13 04:57:26;;;;;;;21.77;10.18;;;;;;;;;;4992450;28;20026;-73
2023/02/13 04:59:52;;;;;;;16.13;10.27;;;;;;;;;;4992719;28;20134;-74
2023/02/13 05:02:18;;;;;;;18.50;10.05;;;;;;;;;;4992515;28;20036;-73
2023/02/13 05:04:44;;;;;;;24.20;11.55;;;;;;;;;;4992388;28;20103;-74
2023/02/13 05:07:10;;;;;;;32.15;12.88;;;;;;;;;;4992511;28;20038;-74
2023/02/13 05:09:36;;;;;;;26.48;11.73;;;;;;;;;;4992599;28;20113;-74
2023/02/13 05:12:02;;;;;;;17.00;10.48;;;;;;;;;;4992414;28;20041;-74
2023/02/13 05:14:28;;;;;;;21.63;11.32;;;;;;;;;;5023828;28;20149;-73
2023/02/13 05:16:54;;;;;;;28.70;14.00;;;;;;;;;;4992647;28;20540;-75
2023/02/13 05:19:20;;;;;;;26.20;14.02;;;;;;;;;;4992319;28;20030;-74
2023/02/13 05:24:30;;;;;;;36.83;13.38;;;-2.50;99.90;;;;;;4992093;28;20037;-74
2023/02/13 05:26:55;;;;;;;25.17;12.57;;;-2.50;99.90;;;;;;4991611;28;20039;-74
2023/02/13 05:29:21;;;;;;;17.83;12.68;;;;;;;;;;4992149;28;20100;-74
2023/02/13 05:31:48;;;;;;;29.10;15.07;;;-2.50;99.90;;;;;;4992211;28;20169;-74
2023/02/13 05:34:15;;;;;;;32.75;12.90;;;;;;;;;;4992180;28;20034;-74
2023/02/13 05:36:41;;;;;;;19.02;11.43;;;-2.60;99.90;;;;;;4992379;28;20030;-74
2023/02/13 05:39:07;;;;;;;23.05;15.38;;;-3.80;96.00;;;;;;4991834;28;20400;-74
2023/02/13 05:41:33;;;;;;;30.17;14.55;;;;;;;;;;4991503;28;20027;-74
2023/02/13 05:43:58;;;;;;;33.75;13.20;;;-2.40;99.90;;;;;;4991947;28;20488;-74
2023/02/13 05:46:24;;;;;;;24.45;13.43;;;;;;;;;;4992189;28;20053;-74
2023/02/13 05:48:50;;;;;;;37.45;15.15;;;-2.40;95.20;;;;;;4991907;28;20022;-74
2023/02/13 05:51:17;;;;;;;27.30;13.52;;;;;;;;;;5006829;28;20034;-74
2023/02/13 05:53:42;;;;;;;46.50;13.57;;;;;;;;;;4991900;28;20022;-74
2023/02/13 05:56:09;;;;;;;34.25;12.48;;;;;;;;;;4991978;28;20029;-74
2023/02/13 05:58:35;;;;;;;33.00;14.40;;;;;;;;;;5006714;28;20081;-73
2023/02/13 06:01:01;;;;;;;36.30;15.43;;;;;;;;;;4991993;28;20500;-74
2023/02/13 06:03:28;;;;;;;29.80;13.90;;;-2.80;96.90;;;;;;4991880;28;20483;-74
2023/02/13 06:05:54;;;;;;;30.63;11.02;;;-2.70;99.90;;;;;;4991144;28;20038;-74
2023/02/13 06:08:20;;;;;;;36.92;14.68;;;;;;;;;;4991008;28;20523;-74
2023/02/13 06:10:47;;;;;;;37.47;12.07;;;;;;;;;;4991524;28;20026;-73
2023/02/13 06:13:13;;;;;;;19.27;11.38;;;-2.60;99.90;;;;;;4991533;28;20029;-74
2023/02/13 06:15:39;;;;;;;30.98;13.18;;;-2.40;99.90;;;;;;4989762;28;20495;-75
2023/02/13 06:18:05;;;;;;;19.42;13.43;;;;;;;;;;4991428;28;20022;-74
2023/02/13 06:20:31;;;;;;;33.55;19.10;;;;;;;;;;4991239;28;20034;-74
2023/02/13 06:22:57;;;;;;;27.73;14.27;;;;;;;;;;4986472;28;20426;-73
2023/02/13 06:25:23;;;;;;;28.60;14.98;;;-2.40;99.90;;;;;;4989654;28;20030;-74
2023/02/13 06:27:49;;;;;;;22.88;13.07;;;;;;;;;;4990033;28;20411;-74
2023/02/13 06:30:16;;;;;;;19.65;11.50;;;-2.70;99.90;;;;;;4989117;28;21337;-73
2023/02/13 06:32:42;;;;;;;11.13;9.23;;;;;;;;;;4989013;28;20041;-73
2023/02/13 06:35:08;;;;;;;20.80;9.85;;;;;;;;;;4988396;28;20030;-73
2023/02/13 06:37:33;;;;;;;45.40;15.73;;;-3.50;95.70;;;;;;4988818;28;20027;-73
2023/02/13 06:39:59;;;;;;;23.17;12.68;;;;;;;;;;4989402;28;20027;-73
2023/02/13 06:42:25;;;;;;;18.63;9.18;;;-2.80;95.80;;;;;;4989835;28;20050;-75
2023/02/13 06:44:51;;;;;;;21.55;12.23;;;;;;;;;;4989355;28;20536;-76
2023/02/13 06:47:17;;;;;;;16.42;9.20;;;;;;;;;;4989570;28;20483;-75
2023/02/13 06:49:43;;;;;;;20.13;11.40;;;;;;;;;;4989910;28;20121;-73
2023/02/13 06:52:09;;;;;;;25.23;13.15;;;;;;;;;;4988973;28;20506;-75
2023/02/13 06:54:35;;;;;;;28.88;13.07;;;;;;;;;;4989399;28;20018;-73
2023/02/13 06:57:01;;;;;;;33.20;10.43;;;;;;;;;;4989395;28;20420;-73
2023/02/13 06:59:27;;;;;;;25.33;10.35;;;-2.40;98.80;;;;;;4988599;28;20038;-73
2023/02/13 07:01:52;;;;;;;35.53;11.93;;;-2.40;98.10;;;;;;4986104;28;20248;-74
2023/02/13 07:04:18;;;;;;;27.67;15.02;;;;;;;;;;4986914;28;20032;-74
2023/02/13 07:06:44;;;;;;;27.88;16.17;;;;;;;;;;4987255;28;20042;-75
2023/02/13 07:09:12;;;;;;;40.20;17.13;;;-2.50;99.90;;;;;;4989037;28;20030;-75
2023/02/13 07:11:38;;;;;;;21.48;10.30;;;-2.40;94.90;;;;;;4988575;28;20049;-74
2023/02/13 07:14:06;;;;;;;29.35;12.00;;;-2.30;94.40;;;;;;4988641;28;20028;-74
2023/02/13 07:16:32;;;;;;;35.85;15.95;;;;;;;;;;4988427;28;20093;-75
2023/02/13 07:18:58;;;;;;;30.17;13.38;;;;;;;;;;4988200;28;20526;-74
2023/02/13 07:21:23;;;;;;;17.15;11.60;;;-1.90;99.90;;;;;;4988470;28;20088;-75
2023/02/13 07:23:50;;;;;;;21.33;14.00;;;-2.10;94.10;;;;;;4988389;28;20038;-75
2023/02/13 07:26:16;;;;;;;34.28;12.65;;;;;;;;;;4989041;28;20042;-75
2023/02/13 07:28:42;;;;;;;20.05;11.70;;;;;;;;;;4988378;28;20061;-74
2023/02/13 07:31:08;;;;;;;28.70;12.18;;;;;;;;;;4988784;28;20144;-74
2023/02/13 07:33:34;;;;;;;13.95;9.00;;;;;;;;;;4988769;28;20109;-75
2023/02/13 07:36:02;;;;;;;18.38;10.57;;;-1.60;99.20;;;;;;5002264;28;20023;-75
2023/02/13 07:38:31;;;;;;;;;;;-1.40;93.20;;;;;;4987096;28;20058;-75
2023/02/13 07:41:00;;;;;;;18.83;12.48;;;-1.50;92.60;;;;;;4986109;28;19997;-74
2023/02/13 07:43:27;;;;;;;34.70;15.52;;;-1.50;92.30;;;;;;4987859;28;20034;-75
2023/02/13 07:45:56;;;;;;;25.30;15.90;;;;;;;;;;4985566;28;20514;-77
2023/02/13 07:48:22;;;;;;;29.83;13.70;;;-1.40;91.90;;;;;;4988283;28;20149;-75
2023/02/13 07:50:48;;;;;;;29.20;16.30;;;-1.10;92.70;;;;;;4987373;28;20034;-76
2023/02/13 07:53:14;;;;;;;45.88;15.18;;;;;;;;;;4988111;28;20034;-75
2023/02/13 07:55:40;;;;;;;40.00;16.90;;;;;;;;;;4988353;28;20100;-74
2023/02/13 07:58:06;;;;;;;20.92;12.35;;;;;;;;;;4987864;28;20762;-76
2023/02/13 08:00:32;;;;;;;26.55;14.45;;;;;;;;;;4987016;28;20027;-75
2023/02/13 08:02:59;;;;;;;30.17;12.70;;;5.90;73.70;;;;;;4987437;28;20499;-79
2023/02/13 08:05:25;;;;;;;38.03;13.77;;;;;;;;;;4988155;28;20073;-76
2023/02/13 08:07:51;;;;;;;31.20;14.38;;;16.20;66.00;;;;;;4988210;28;20277;-76
2023/02/13 08:13:01;;;;;;;35.60;16.63;;;;;;;;;;4987931;28;20061;-77
2023/02/13 08:15:27;;;;;;;36.42;19.23;;;25.80;48.40;;;;;;4988398;28;20034;-76
2023/02/13 08:17:53;;;;;;;34.20;19.52;;;;;;;;;;4988338;28;20037;-78
2023/02/13 08:20:19;;;;;;;39.42;21.35;;;29.00;34.50;;;;;;5002605;28;20423;-77
2023/02/13 08:22:45;;;;;;;46.30;22.40;;;;;;;;;;4987541;28;20117;-76
2023/02/13 08:25:12;;;;;;;44.22;23.02;;;31.30;30.00;;;;;;4988092;28;20030;-76
2023/02/13 08:27:38;;;;;;;43.53;23.75;;;32.30;29.40;;;;;;4988287;28;20054;-76
2023/02/13 08:30:05;;;;;;;40.20;23.50;;;32.80;28.60;;;;;;4989396;28;20070;-76
2023/02/13 08:32:31;;;;;;;37.50;22.55;;;;;;;;;;4992095;28;20014;-76
2023/02/13 08:34:57;;;;;;;35.72;21.02;;;;;;;;;;4991332;28;20034;-77
2023/02/13 08:37:23;;;;;;;43.15;22.67;;;34.40;36.90;;;;;;4992139;28;20018;-75
2023/02/13 08:39:48;;;;;;;35.00;21.93;;;35.00;36.50;;;;;;4991719;28;20061;-76
2023/02/13 08:42:14;;;;;;;36.92;22.80;;;;;;;;;;5006513;28;20073;-76
2023/02/13 08:44:41;;;;;;;34.17;20.23;;;;;;;;;;4991940;28;20030;-76
2023/02/13 08:47:08;;;;;;;30.60;19.70;;;36.80;25.70;;;;;;4991619;28;20061;-76
2023/02/13 08:49:34;;;;;;;33.58;20.63;;;;;;;;;;4990873;28;20072;-77
2023/02/13 08:52:01;;;;;;;34.45;20.30;;;38.00;24.90;;;;;;4991377;28;20100;-77
2023/02/13 08:54:27;;;;;;;;;;;38.50;22.40;;;;;;4991870;28;20042;-76
2023/02/13 08:56:53;;;;;;;31.13;20.30;;;38.90;25.20;;;;;;4990531;28;19952;-77
2023/02/13 08:59:19;;;;;;;33.08;22.45;;;;;;;;;;4990740;28;20097;-78
2023/02/13 09:01:45;;;;;;;33.05;23.15;;;;;;;;;;4991315;28;20033;-77
2023/02/13 09:04:14;;;;;;;38.33;27.20;;;39.70;25.50;;;;;;4992598;28;20169;-76
2023/02/13 09:06:40;;;;;;;28.98;20.20;;;;;;;;;;4991669;28;20042;-78
2023/02/13 09:09:06;;;;;;;29.35;19.63;;;;;;;;;;4993790;28;20015;-75
2023/02/13 09:11:32;;;;;;;28.25;17.77;;;40.10;22.70;;;;;;4991879;28;20041;-74
2023/02/13 09:13:58;;;;;;;29.17;18.83;;;;;;;;;;4991268;28;20068;-76
2023/02/13 09:16:24;;;;;;;26.40;18.23;;;;;;;;;;4991655;28;20019;-75
2023/02/13 09:18:50;;;;;;;30.80;19.15;;;40.80;22.20;;;;;;4991726;28;20049;-75
2023/02/13 09:21:17;;;;;;;28.08;18.17;;;40.10;22.60;;;;;;4990954;28;20495;-76
2023/02/13 09:23:43;;;;;;;27.25;18.40;;;40.90;29.90;;;;;;4991063;28;20038;-75
2023/02/13 09:26:13;;;;;;;27.45;18.67;;;41.10;22.10;;;;;;4991328;28;20030;-75
2023/02/13 09:28:39;;;;;;;30.08;19.02;;;41.40;30.00;;;;;;4991251;28;20042;-75
2023/02/13 09:31:15;;;;;;;27.13;19.48;;;41.10;21.70;;;;;;4991294;28;20034;-75
2023/02/13 09:33:45;;;;;;;27.58;18.73;;;41.20;21.60;;;;;;4990288;28;20065;-75
2023/02/13 09:36:18;;;;;;;26.05;18.92;;;41.60;21.60;;;;;;4991230;28;20072;-74
2023/02/13 09:38:45;;;;;;;28.25;18.85;;;;;;;;;;4991318;28;20034;-75
2023/02/13 09:41:15;;;;;;;;;;;41.70;20.70;;;;;;4991449;28;20088;-75
2023/02/13 09:44:06;;;;;;;31.92;20.15;;;41.70;21.50;;;;;;4991343;28;19910;-76
2023/02/13 09:46:35;;;;;;;29.65;18.30;;;41.90;21.50;;;;;;4991193;28;20038;-75
2023/02/13 09:49:12;;;;;;;32.83;21.17;;;41.90;29.30;;;;;;4990089;28;20029;-74
2023/02/13 09:51:42;;;;;;;37.67;23.35;;;42.40;21.20;;;;;;4990125;28;20121;-76
2023/02/13 09:54:14;;;;;;;32.17;21.13;;;42.80;21.20;;;;;;4990455;28;20125;-75
2023/02/13 09:57:01;;;;;;;30.50;20.05;;;41.10;20.10;;;;;;4990524;28;20042;-75
2023/02/13 09:59:44;;;;;;;30.08;20.95;;;42.70;22.10;;;;;;4971727;28;20035;-75
2023/02/13 10:02:38;;;;;;;31.75;20.50;;;43.10;20.90;;;;;;4971621;28;20037;-75
2023/02/13 10:05:31;;;;;;;29.73;19.13;;;42.80;20.90;;;;;;4971307;28;20100;-74
2023/02/13 10:08:35;;;;;;;34.65;21.30;;;42.70;21.30;;;;;;4986250;28;20088;-74
2023/02/13 10:11:24;;;;;;;29.23;19.33;;;42.60;21.00;;;;;;4990593;28;20041;-74
2023/02/13 10:14:04;;;;;;;29.30;21.10;;;42.50;20.90;;;;;;5007523;28;20045;-76
2023/02/13 10:16:36;;;;;;;29.88;19.42;;;42.70;20.90;;;;;;5006982;28;20042;-76
2023/02/13 10:19:23;;;;;;;29.08;20.83;;;42.10;28.80;;;;;;5006963;28;20080;-75
2023/02/13 10:21:57;;;;;;;35.42;20.20;;;42.50;26.10;;;;;;5006863;28;20430;-74
2023/02/13 10:24:34;;;;;;;30.60;20.48;;;42.80;29.00;;;;;;5007429;28;20069;-75
2023/02/13 10:27:14;;;;;;;33.70;19.00;;;43.30;20.90;;;;;;5006862;28;20096;-75
2023/02/13 10:30:04;;;;;;;26.42;17.50;;;43.70;29.20;;;;;;5006590;28;20044;-75
2023/02/13 10:32:48;;;;;;;26.52;16.58;;;44.50;20.80;;;;;;5006367;28;20100;-76
2023/02/13 10:35:38;;;;;;;24.40;15.07;;;44.40;28.80;;;;;;5006514;28;20026;-77
2023/02/13 10:38:13;;;;;;;23.48;13.73;;;43.60;28.50;;;;;;5006586;28;20049;-75
2023/02/13 10:40:50;;;;;;;26.52;13.98;;;42.80;20.30;;;;;;4990224;28;20025;-74
2023/02/13 10:43:24;;;;;;;25.17;13.50;;;42.50;22.00;;;;;;5006252;28;20065;-75
2023/02/13 10:46:34;;;;;;;28.02;13.65;;;42.80;20.20;;;;;;5006054;28;20042;-74
2023/02/13 10:49:37;;;;;;;31.05;15.73;;;42.80;20.10;;;;;;4940038;29;20043;-74
2023/02/13 10:52:24;;;;;;;26.85;14.98;;;42.80;28.50;;;;;;4862309;29;20037;-75
2023/02/13 10:54:50;;;;;;;25.63;14.35;;;;;;;;;;4862324;29;20040;-76
2023/02/13 10:57:21;;;;;;;;;;;43.20;20.00;;;;;;4861062;29;20034;-74
2023/02/13 11:00:03;;;;;;;31.17;14.13;;;42.50;19.90;;;;;;4872224;29;20577;-75
2023/02/13 11:02:35;;;;;;;25.13;14.63;;;41.90;28.30;;;;;;4870083;29;20527;-75
2023/02/13 11:05:07;;;;;;;24.70;14.32;;;;;;;;;;4853892;29;20050;-75
2023/02/13 11:07:33;;;;;;;26.42;15.35;;;40.80;28.60;;;;;;4854095;29;20041;-75
2023/02/13 11:10:02;;;;;;;;;;;40.70;19.70;;;;;;4857119;29;20124;-75
2023/02/13 11:12:32;;;;;;;27.38;14.02;;;40.50;19.80;;;;;;4857826;29;20048;-75
2023/02/13 11:15:01;;;;;;;26.02;15.23;;;40.10;20.40;;;;;;4858470;29;20555;-76
2023/02/13 11:17:31;;;;;;;25.58;12.52;;;39.80;19.70;;;;;;4853530;29;20069;-76
2023/02/13 11:20:00;;;;;;;27.92;13.27;;;39.20;19.80;;;;;;4864972;29;20574;-77
2023/02/13 11:22:38;;;;;;;29.55;13.77;;;39.30;19.90;;;;;;4865619;29;20076;-75
2023/02/13 11:25:18;;;;;;;27.02;14.02;;;39.20;19.80;;;;;;4896455;29;20628;-76
2023/02/13 11:27:46;;;;;;;27.33;14.15;;;38.60;25.60;;;;;;4912601;28;20119;-76
2023/02/13 11:30:33;;;;;;;32.85;13.60;;;38.70;22.00;;;;;;4988287;28;20103;-76
2023/02/13 11:33:01;;;;;;;26.00;13.93;;;38.30;19.90;;;;;;4988279;28;20034;-76
2023/02/13 11:35:27;;;;;;;30.35;13.07;;;;;;;;;;4988836;28;20034;-76
2023/02/13 11:38:23;;;;;;;29.50;13.68;;;36.80;23.30;;;;;;4988872;28;20125;-76
2023/02/13 11:41:01;;;;;;;27.90;13.52;;;36.70;20.50;;;;;;4987869;28;20499;-76
2023/02/13 11:43:35;;;;;;;26.80;14.00;;;36.20;20.50;;;;;;4989008;28;20109;-75
2023/02/13 11:46:06;;;;;;;30.25;11.80;;;35.50;20.70;;;;;;4989069;28;20053;-76
2023/02/13 11:48:32;;;;;;;22.58;12.35;;;;;;;;;;4987911;28;20379;-76
2023/02/13 11:50:58;;;;;;;29.23;12.57;;;33.10;30.00;;;;;;4986981;28;20030;-75
2023/02/13 11:53:29;;;;;;;35.30;17.37;;;32.70;21.40;;;;;;4988959;28;20420;-77
2023/02/13 11:56:03;;;;;;;25.77;12.77;;;31.20;21.90;;;;;;4988049;28;20491;-76
2023/02/13 11:58:30;;;;;;;25.42;11.68;;;29.70;22.20;;;;;;4988219;28;20029;-77
2023/02/13 12:01:11;;;;;;;;;;;29.50;22.50;;;;;;4989256;28;20089;-77
2023/02/13 12:03:37;;;;;;;26.42;11.95;;;;;;;;;;4988353;28;19932;-77
2023/02/13 12:06:14;;;;;;;28.95;13.48;;;26.50;36.60;;;;;;4988330;28;20038;-74
2023/02/13 12:08:45;;;;;;;27.08;12.30;;;25.20;24.40;;;;;;4988681;28;20062;-77
2023/02/13 12:11:44;;;;;;;27.20;11.90;;;24.50;25.20;;;;;;4987827;28;20038;-76
2023/02/13 12:14:18;;;;;;;29.35;13.05;;;23.40;26.10;;;;;;4987951;28;20027;-76
2023/02/13 12:17:03;;;;;;;31.10;13.48;;;22.40;26.80;;;;;;4988363;28;20108;-76
2023/02/13 12:19:42;;;;;;;23.92;11.88;;;22.00;27.60;;;;;;4988957;28;20053;-76
2023/02/13 12:22:08;;;;;;;29.10;12.98;;;;;;;;;;4987855;28;20401;-76
2023/02/13 12:24:58;;;;;;;22.17;11.23;;;21.50;28.20;;;;;;4988433;28;20491;-75
2023/02/13 12:27:41;;;;;;;35.28;13.13;;;21.50;28.30;;;;;;4988426;28;20073;-76
2023/02/13 12:30:31;;;;;;;26.00;12.25;;;21.40;43.70;;;;;;4988792;28;20373;-75
2023/02/13 12:33:26;;;;;;;25.38;12.50;;;21.30;43.60;;;;;;4988000;28;20066;-75
2023/02/13 12:36:15;;;;;;;29.23;12.27;;;21.40;28.20;;;;;;4988575;28;20056;-76
2023/02/13 12:38:58;;;;;;;31.45;11.07;;;21.20;36.00;;;;;;4988646;28;20038;-75
2023/02/13 12:41:44;;;;;;;32.17;14.20;;;21.50;40.00;;;;;;4987035;28;20077;-76
2023/02/13 12:44:34;;;;;;;24.67;12.80;;;21.20;28.70;;;;;;4987463;28;20105;-75
2023/02/13 12:47:00;;;;;;;30.70;11.93;;;;;;;;;;4985177;28;20891;-75
2023/02/13 12:49:29;;;;;;;29.50;12.70;;;;;;;;;;4986772;28;20141;-76
2023/02/13 12:52:19;;;;;;;26.58;11.50;;;21.30;28.90;;;;;;4987777;28;20038;-75
2023/02/13 12:55:19;;;;;;;23.00;10.65;;;21.30;28.80;;;;;;4988358;28;20084;-74
2023/02/13 12:58:11;;;;;;;25.17;11.63;;;21.20;28.80;;;;;;4991061;28;20048;-79
2023/02/13 13:00:55;;;;;;;27.88;10.43;;;21.20;44.60;;;;;;5003339;28;20070;-76
2023/02/13 13:03:36;;;;;;;26.63;10.38;;;21.50;34.60;;;;;;4986182;28;20500;-76
2023/02/13 13:06:40;;;;;;;24.45;10.27;;;21.00;35.70;;;;;;4988528;28;20038;-76
2023/02/13 13:09:35;;;;;;;25.45;10.95;;;21.00;29.20;;;;;;4987603;28;20562;-76
2023/02/13 13:12:18;;;;;;;29.23;11.75;;;20.90;29.60;;;;;;4988081;28;20089;-76
2023/02/13 13:15:25;;;;;;;34.55;10.32;;;20.90;39.90;;;;;;4988516;28;20393;-76
2023/02/13 13:18:16;;;;;;;27.08;11.82;;;20.90;29.90;;;;;;4991423;28;20797;-76
2023/02/13 13:20:54;;;;;;;28.45;12.68;;;20.80;30.00;;;;;;4990969;28;20033;-76
2023/02/13 13:23:59;;;;;;;34.38;13.10;;;20.70;30.00;;;;;;4990808;28;20083;-76
2023/02/13 13:26:25;;;;;;;30.75;12.32;;;;;;;;;;4991335;28;20043;-76
2023/02/13 13:28:56;;;;;;;21.65;11.48;;;20.40;30.50;;;;;;4991233;28;20059;-76
2023/02/13 13:31:25;;;;;;;32.00;14.32;;;20.50;46.00;;;;;;4991140;28;20402;-75
2023/02/13 13:34:00;;;;;;;31.40;11.75;;;21.10;33.60;;;;;;4991130;28;20465;-76
2023/02/13 13:36:32;;;;;;;30.42;14.85;;;20.00;34.90;;;;;;4991408;28;20585;-76
2023/02/13 13:39:03;;;;;;;32.08;13.10;;;19.70;31.60;;;;;;4990635;28;20053;-75
2023/02/13 13:41:29;;;;;;;33.30;13.00;;;;;;;;;;4991295;28;20022;-76
2023/02/13 13:43:55;;;;;;;30.50;14.10;;;;;;;;;;4991104;28;20079;-75
2023/02/13 13:46:49;;;;;;;29.05;13.77;;;19.40;32.70;;;;;;4989661;28;20038;-75
2023/02/13 13:49:34;;;;;;;28.58;14.15;;;19.40;33.00;;;;;;4990340;28;20499;-75
2023/02/13 13:52:33;;;;;;;27.92;13.63;;;19.30;33.20;;;;;;4987477;28;20041;-76
2023/02/13 13:55:03;;;;;;;25.10;12.68;;;19.40;33.80;;;;;;4988964;28;20053;-76
2023/02/13 13:57:41;;;;;;;37.00;14.77;;;19.30;33.50;;;;;;4990611;28;20030;-76
2023/02/13 14:00:09;;;;;;;33.17;14.95;;;19.20;43.40;;;;;;4990616;28;20026;-76
2023/02/13 14:02:45;;;;;;;36.35;15.00;;;18.80;50.70;;;;;;4990886;28;20037;-76
2023/02/13 14:05:23;;;;;;;30.30;15.20;;;19.00;34.20;;;;;;4990437;28;20065;-76
2023/02/13 14:07:52;;;;;;;29.98;14.95;;;18.80;41.00;;;;;;4990625;28;20407;-76
2023/02/13 14:10:24;;;;;;;30.10;15.85;;;18.60;34.70;;;;;;4989827;28;20034;-76
2023/02/13 14:13:01;;;;;;;36.00;17.17;;;18.60;35.30;;;;;;4990610;28;20030;-75